Terminal Aerodrome Forecast
Issued by NWS Charleston, WV

Current Version | Previous Version | Graphics & Text | Print | Product List | Glossary On
Versions: 1 2 3 4 5 6 7 8 9 10 11 12 13 14 15 16 17 18 19 20 21 22 23 24 25 26 27 28 29 30 31 32
000
FTUS41 KRLX 190800 AAA
TAFEKN
TAF AMD
KEKN 190830Z 1908/2006 30008KT 6SM -RA BR BKN012 OVC023
     FM191100 30009KT 4SM BR OVC008
     FM191400 29009KT 5SM BR SCT008=

USA.gov is the U.S. government's official web portal to all federal, state and local government web resources and services.